RYR6DB EGSS-LIPZ
Flight info
| Callsign | RYR6DB |
|---|---|
| Flight time | 1h 53m |
| Altitude | 37000 |
| Route | CLN M84 KONAN UL607 REMBA DCT LIRSU DCT KRH DCT BATUB M738 NATAG/N0398F290 M738 ADOSA/N0335F190 L612 ALBET |
| Aircraft | B738/M-SDE2E3FGHIRWXY/LB1 |
Departure
| Time | 2026-05-06 15:33 |
|---|---|
| Airport | London Stansted Airport (EGSS) |
Arrival
| Time | 2026-05-06 17:27 |
|---|---|
| Airport | Venice Marco Polo Airport (LIPZ) |
| Time | Latitude | Longitude | Altitude | Speed | Heading |
|---|---|---|---|---|---|
| 2026-05-06 15:04 | 51.89066 | 0.25624 | 348 ft | 0 kts | 42° |
| 2026-05-06 15:20 | 51.89056 | 0.25610 | 351 ft | 0 kts | 39° |
| 2026-05-06 15:21 | 51.89046 | 0.25597 | 336 ft | 4 kts | 35° |
| 2026-05-06 15:21 | 51.89023 | 0.25574 | 334 ft | 4 kts | 22° |
| 2026-05-06 15:21 | 51.88999 | 0.25564 | 334 ft | 4 kts | 348° |
| 2026-05-06 15:22 | 51.88985 | 0.25573 | 334 ft | 1 kts | 313° |
| 2026-05-06 15:25 | 51.88986 | 0.25573 | 339 ft | 0 kts | 313° |
| 2026-05-06 15:25 | 51.88989 | 0.25566 | 335 ft | 2 kts | 313° |
| 2026-05-06 15:25 | 51.89010 | 0.25530 | 339 ft | 9 kts | 313° |
| 2026-05-06 15:26 | 51.89058 | 0.25444 | 338 ft | 11 kts | 311° |
| 2026-05-06 15:26 | 51.89119 | 0.25336 | 338 ft | 16 kts | 313° |
| 2026-05-06 15:26 | 51.89115 | 0.25186 | 342 ft | 15 kts | 224° |
| 2026-05-06 15:26 | 51.89036 | 0.25067 | 349 ft | 16 kts | 224° |
| 2026-05-06 15:27 | 51.88947 | 0.24932 | 342 ft | 19 kts | 222° |
| 2026-05-06 15:27 | 51.88849 | 0.24788 | 345 ft | 19 kts | 223° |
| 2026-05-06 15:27 | 51.88754 | 0.24643 | 343 ft | 18 kts | 223° |
| 2026-05-06 15:27 | 51.88661 | 0.24505 | 351 ft | 18 kts | 223° |
| 2026-05-06 15:28 | 51.88572 | 0.24371 | 344 ft | 17 kts | 223° |
| 2026-05-06 15:28 | 51.88477 | 0.24229 | 337 ft | 20 kts | 223° |
| 2026-05-06 15:28 | 51.88365 | 0.24060 | 340 ft | 24 kts | 223° |
| 2026-05-06 15:28 | 51.88242 | 0.23876 | 334 ft | 24 kts | 222° |
| 2026-05-06 15:29 | 51.88166 | 0.23668 | 336 ft | 23 kts | 288° |
| 2026-05-06 15:29 | 51.88159 | 0.23453 | 333 ft | 22 kts | 222° |
| 2026-05-06 15:29 | 51.88048 | 0.23288 | 336 ft | 21 kts | 223° |
| 2026-05-06 15:29 | 51.87977 | 0.23181 | 334 ft | 21 kts | 223° |
| 2026-05-06 15:30 | 51.87862 | 0.23009 | 336 ft | 25 kts | 223° |
| 2026-05-06 15:30 | 51.87700 | 0.22765 | 336 ft | 23 kts | 223° |
| 2026-05-06 15:30 | 51.87585 | 0.22591 | 334 ft | 23 kts | 221° |
| 2026-05-06 15:30 | 51.87524 | 0.22479 | 334 ft | 12 kts | 249° |
| 2026-05-06 15:31 | 51.87561 | 0.22353 | 330 ft | 15 kts | 310° |
| 2026-05-06 15:31 | 51.87661 | 0.22263 | 329 ft | 18 kts | 1° |
| 2026-05-06 15:31 | 51.87720 | 0.22309 | 329 ft | 0 kts | 41° |
| 2026-05-06 15:32 | 51.87738 | 0.22335 | 328 ft | 17 kts | 43° |
| 2026-05-06 15:32 | 51.88010 | 0.22742 | 334 ft | 89 kts | 43° |
| 2026-05-06 15:32 | 51.88627 | 0.23665 | 339 ft | 148 kts | 40° |
| 2026-05-06 15:33 | 51.89468 | 0.24891 | 772 ft | 168 kts | 41° |
| 2026-05-06 15:33 | 51.90327 | 0.26164 | 1660 ft | 169 kts | 38° |
| 2026-05-06 15:33 | 51.91128 | 0.27565 | 2462 ft | 177 kts | 53° |
| 2026-05-06 15:33 | 51.91666 | 0.29538 | 2866 ft | 203 kts | 70° |
| 2026-05-06 15:34 | 51.91749 | 0.31973 | 3103 ft | 233 kts | 100° |
| 2026-05-06 15:34 | 51.91033 | 0.34391 | 3666 ft | 242 kts | 117° |
| 2026-05-06 15:34 | 51.90233 | 0.36782 | 3955 ft | 243 kts | 115° |
| 2026-05-06 15:34 | 51.89481 | 0.39191 | 3989 ft | 243 kts | 113° |
| 2026-05-06 15:35 | 51.88725 | 0.41660 | 4009 ft | 244 kts | 114° |
| 2026-05-06 15:35 | 51.88001 | 0.44068 | 4690 ft | 237 kts | 113° |
| 2026-05-06 15:35 | 51.87285 | 0.46486 | 5333 ft | 239 kts | 114° |
| 2026-05-06 15:35 | 51.86566 | 0.48923 | 5991 ft | 240 kts | 115° |
| 2026-05-06 15:36 | 51.85847 | 0.51366 | 6636 ft | 241 kts | 114° |
| 2026-05-06 15:36 | 51.85132 | 0.53796 | 7235 ft | 244 kts | 114° |
| 2026-05-06 15:36 | 51.84391 | 0.56318 | 7839 ft | 252 kts | 114° |
| 2026-05-06 15:36 | 51.83634 | 0.58923 | 8493 ft | 259 kts | 111° |
| 2026-05-06 15:37 | 51.83115 | 0.61741 | 9155 ft | 264 kts | 98° |
| 2026-05-06 15:37 | 51.82952 | 0.64735 | 9842 ft | 270 kts | 88° |
| 2026-05-06 15:37 | 51.83036 | 0.67784 | 10456 ft | 274 kts | 85° |
| 2026-05-06 15:37 | 51.83174 | 0.70887 | 11076 ft | 278 kts | 83° |
| 2026-05-06 15:38 | 51.83321 | 0.74028 | 11711 ft | 283 kts | 84° |
| 2026-05-06 15:38 | 51.83459 | 0.77272 | 11983 ft | 305 kts | 85° |
| 2026-05-06 15:38 | 51.83600 | 0.80778 | 11975 ft | 316 kts | 85° |
| 2026-05-06 15:38 | 51.83731 | 0.84319 | 11975 ft | 313 kts | 85° |
| 2026-05-06 15:39 | 51.83856 | 0.87806 | 11970 ft | 308 kts | 85° |
| 2026-05-06 15:39 | 51.83979 | 0.91275 | 12025 ft | 313 kts | 85° |
| 2026-05-06 15:39 | 51.84110 | 0.94925 | 12245 ft | 335 kts | 85° |
| 2026-05-06 15:39 | 51.84247 | 0.98767 | 12726 ft | 348 kts | 86° |
| 2026-05-06 15:40 | 51.84385 | 1.02703 | 13450 ft | 354 kts | 86° |
| 2026-05-06 15:40 | 51.84524 | 1.06708 | 14150 ft | 359 kts | 86° |
| 2026-05-06 15:40 | 51.84557 | 1.10768 | 14863 ft | 363 kts | 97° |
| 2026-05-06 15:40 | 51.83741 | 1.14636 | 15593 ft | 366 kts | 122° |
| 2026-05-06 15:41 | 51.82108 | 1.17778 | 16353 ft | 367 kts | 142° |
| 2026-05-06 15:41 | 51.80038 | 1.20114 | 17090 ft | 369 kts | 148° |
| 2026-05-06 15:41 | 51.77866 | 1.22365 | 17812 ft | 373 kts | 149° |
| 2026-05-06 15:41 | 51.75661 | 1.24619 | 18490 ft | 377 kts | 149° |
| 2026-05-06 15:42 | 51.73442 | 1.26909 | 19126 ft | 380 kts | 149° |
| 2026-05-06 15:42 | 51.71211 | 1.29243 | 19766 ft | 384 kts | 148° |
| 2026-05-06 15:42 | 51.68965 | 1.31603 | 20402 ft | 387 kts | 148° |
| 2026-05-06 15:42 | 51.66683 | 1.33921 | 21011 ft | 389 kts | 153° |
| 2026-05-06 15:43 | 51.64180 | 1.35602 | 21607 ft | 391 kts | 165° |
| 2026-05-06 15:43 | 51.61516 | 1.36490 | 22218 ft | 391 kts | 176° |
| 2026-05-06 15:43 | 51.58789 | 1.36705 | 22825 ft | 393 kts | 180° |
| 2026-05-06 15:43 | 51.56047 | 1.36803 | 23393 ft | 396 kts | 180° |
| 2026-05-06 15:44 | 51.53277 | 1.36912 | 23876 ft | 400 kts | 180° |
| 2026-05-06 15:44 | 51.50521 | 1.37058 | 24383 ft | 402 kts | 180° |
| 2026-05-06 15:44 | 51.47720 | 1.37227 | 24882 ft | 404 kts | 179° |
| 2026-05-06 15:44 | 51.44935 | 1.37919 | 25317 ft | 411 kts | 162° |
| 2026-05-06 15:45 | 51.42404 | 1.40104 | 25796 ft | 417 kts | 144° |
| 2026-05-06 15:45 | 51.40378 | 1.43444 | 26278 ft | 421 kts | 129° |
| 2026-05-06 15:45 | 51.38593 | 1.47169 | 26754 ft | 423 kts | 129° |
| 2026-05-06 15:45 | 51.36815 | 1.50967 | 27177 ft | 426 kts | 129° |
| 2026-05-06 15:46 | 51.35031 | 1.54773 | 27585 ft | 429 kts | 129° |
| 2026-05-06 15:46 | 51.33227 | 1.58586 | 28004 ft | 432 kts | 129° |
| 2026-05-06 15:46 | 51.31396 | 1.62417 | 28419 ft | 434 kts | 129° |
| 2026-05-06 15:46 | 51.29550 | 1.66247 | 28845 ft | 436 kts | 129° |
| 2026-05-06 15:47 | 51.27694 | 1.70079 | 29238 ft | 438 kts | 129° |
| 2026-05-06 15:47 | 51.25817 | 1.73945 | 29590 ft | 441 kts | 129° |
| 2026-05-06 15:47 | 51.23931 | 1.77821 | 29971 ft | 443 kts | 129° |
| 2026-05-06 15:47 | 51.22037 | 1.81712 | 30288 ft | 445 kts | 129° |
| 2026-05-06 15:48 | 51.20135 | 1.85614 | 30572 ft | 447 kts | 129° |
| 2026-05-06 15:48 | 51.18243 | 1.89492 | 30873 ft | 449 kts | 129° |
| 2026-05-06 15:48 | 51.16316 | 1.93434 | 31089 ft | 453 kts | 129° |
| 2026-05-06 15:48 | 51.14566 | 1.97617 | 31351 ft | 456 kts | 119° |
| 2026-05-06 15:49 | 51.13320 | 2.02291 | 31655 ft | 459 kts | 108° |
| 2026-05-06 15:49 | 51.12595 | 2.07215 | 32188 ft | 456 kts | 98° |
| 2026-05-06 15:49 | 51.12296 | 2.12232 | 32551 ft | 456 kts | 95° |
| 2026-05-06 15:49 | 51.12066 | 2.17282 | 32737 ft | 459 kts | 95° |
| 2026-05-06 15:50 | 51.11844 | 2.22333 | 33237 ft | 455 kts | 94° |
| 2026-05-06 15:50 | 51.11608 | 2.27342 | 33652 ft | 454 kts | 95° |
| 2026-05-06 15:50 | 51.11351 | 2.32370 | 33897 ft | 455 kts | 95° |
| 2026-05-06 15:50 | 51.11081 | 2.37375 | 34256 ft | 453 kts | 96° |
| 2026-05-06 15:51 | 51.10802 | 2.42370 | 34437 ft | 456 kts | 96° |
| 2026-05-06 15:51 | 51.10518 | 2.47396 | 34726 ft | 454 kts | 96° |
| 2026-05-06 15:51 | 51.10234 | 2.52404 | 34990 ft | 455 kts | 96° |
| 2026-05-06 15:51 | 51.09947 | 2.57433 | 35140 ft | 457 kts | 96° |
| 2026-05-06 15:52 | 51.09659 | 2.62454 | 35484 ft | 455 kts | 96° |
| 2026-05-06 15:52 | 51.09209 | 2.67445 | 35664 ft | 456 kts | 104° |
| 2026-05-06 15:52 | 51.08381 | 2.72336 | 35839 ft | 457 kts | 108° |
| 2026-05-06 15:52 | 51.07485 | 2.77101 | 36142 ft | 455 kts | 108° |
| 2026-05-06 15:53 | 51.06555 | 2.81937 | 36386 ft | 456 kts | 108° |
| 2026-05-06 15:53 | 51.05630 | 2.86784 | 36519 ft | 458 kts | 108° |
| 2026-05-06 15:53 | 51.04718 | 2.91631 | 36832 ft | 457 kts | 108° |
| 2026-05-06 15:53 | 51.03819 | 2.96475 | 36934 ft | 460 kts | 108° |
| 2026-05-06 15:54 | 51.02021 | 3.06251 | 36930 ft | 463 kts | 107° |
| 2026-05-06 15:54 | 51.00239 | 3.15943 | 36911 ft | 450 kts | 108° |
| 2026-05-06 15:55 | 50.98477 | 3.25462 | 36921 ft | 448 kts | 108° |
| 2026-05-06 15:55 | 50.96714 | 3.34923 | 36916 ft | 448 kts | 108° |
| 2026-05-06 15:56 | 50.94940 | 3.44394 | 36909 ft | 448 kts | 108° |
| 2026-05-06 15:56 | 50.93156 | 3.53880 | 36910 ft | 448 kts | 108° |
| 2026-05-06 15:57 | 50.91375 | 3.63305 | 36899 ft | 449 kts | 108° |
| 2026-05-06 15:57 | 50.89548 | 3.72816 | 36902 ft | 451 kts | 108° |
| 2026-05-06 15:58 | 50.87699 | 3.82334 | 36898 ft | 452 kts | 109° |
| 2026-05-06 15:58 | 50.85839 | 3.91877 | 36890 ft | 453 kts | 109° |
| 2026-05-06 15:59 | 50.83981 | 4.01378 | 36890 ft | 454 kts | 109° |
| 2026-05-06 15:59 | 50.82104 | 4.10933 | 36885 ft | 454 kts | 109° |
| 2026-05-06 16:00 | 50.80221 | 4.20471 | 36884 ft | 454 kts | 109° |
| 2026-05-06 16:00 | 50.78338 | 4.29966 | 36882 ft | 453 kts | 109° |
| 2026-05-06 16:01 | 50.76444 | 4.39462 | 36884 ft | 453 kts | 109° |
| 2026-05-06 16:01 | 50.74554 | 4.48901 | 36888 ft | 452 kts | 109° |
| 2026-05-06 16:02 | 50.72644 | 4.58394 | 36875 ft | 452 kts | 109° |
| 2026-05-06 16:02 | 50.70779 | 4.67841 | 36873 ft | 451 kts | 109° |
| 2026-05-06 16:03 | 50.68963 | 4.77257 | 36875 ft | 450 kts | 109° |
| 2026-05-06 16:03 | 50.67124 | 4.86695 | 36880 ft | 450 kts | 109° |
| 2026-05-06 16:04 | 50.64998 | 4.95954 | 36885 ft | 447 kts | 116° |
| 2026-05-06 16:04 | 50.62323 | 5.04731 | 36881 ft | 446 kts | 118° |
| 2026-05-06 16:05 | 50.59584 | 5.13525 | 36875 ft | 446 kts | 118° |
| 2026-05-06 16:05 | 50.56908 | 5.22254 | 36889 ft | 446 kts | 118° |
| 2026-05-06 16:06 | 50.54229 | 5.31069 | 36886 ft | 446 kts | 118° |
| 2026-05-06 16:06 | 50.51548 | 5.39882 | 36882 ft | 446 kts | 118° |
| 2026-05-06 16:07 | 50.48880 | 5.48620 | 36880 ft | 446 kts | 118° |
| 2026-05-06 16:07 | 50.46186 | 5.57405 | 36872 ft | 446 kts | 118° |
| 2026-05-06 16:08 | 50.43487 | 5.66174 | 36875 ft | 446 kts | 118° |
| 2026-05-06 16:08 | 50.40792 | 5.74899 | 36879 ft | 446 kts | 118° |
| 2026-05-06 16:09 | 50.38066 | 5.83693 | 36878 ft | 447 kts | 118° |
| 2026-05-06 16:09 | 50.35354 | 5.92412 | 36866 ft | 447 kts | 118° |
| 2026-05-06 16:10 | 50.32615 | 6.01185 | 36855 ft | 448 kts | 118° |
| 2026-05-06 16:10 | 50.29886 | 6.09896 | 36852 ft | 448 kts | 119° |
| 2026-05-06 16:11 | 50.27126 | 6.18677 | 36849 ft | 449 kts | 119° |
| 2026-05-06 16:11 | 50.24363 | 6.27437 | 36840 ft | 449 kts | 119° |
| 2026-05-06 16:12 | 50.21608 | 6.36145 | 36828 ft | 450 kts | 119° |
| 2026-05-06 16:12 | 50.18771 | 6.44866 | 36800 ft | 448 kts | 124° |
| 2026-05-06 16:13 | 50.14986 | 6.52493 | 36821 ft | 444 kts | 133° |
| 2026-05-06 16:13 | 50.10948 | 6.59800 | 36815 ft | 444 kts | 134° |
| 2026-05-06 16:14 | 50.06949 | 6.67069 | 36813 ft | 444 kts | 133° |
| 2026-05-06 16:14 | 50.02968 | 6.74370 | 36820 ft | 441 kts | 133° |
| 2026-05-06 16:15 | 49.99004 | 6.81649 | 36817 ft | 440 kts | 133° |
| 2026-05-06 16:15 | 49.95070 | 6.88856 | 36827 ft | 439 kts | 133° |
| 2026-05-06 16:16 | 49.91093 | 6.96120 | 36798 ft | 440 kts | 134° |
| 2026-05-06 16:16 | 49.87128 | 7.03344 | 36803 ft | 440 kts | 134° |
| 2026-05-06 16:17 | 49.83189 | 7.10499 | 36802 ft | 437 kts | 134° |
| 2026-05-06 16:17 | 49.79231 | 7.17669 | 36792 ft | 436 kts | 134° |
| 2026-05-06 16:18 | 49.75311 | 7.24749 | 36779 ft | 435 kts | 134° |
| 2026-05-06 16:18 | 49.72036 | 7.30650 | 36786 ft | 434 kts | 134° |
| 2026-05-06 16:19 | 49.68097 | 7.37730 | 36794 ft | 433 kts | 134° |
| 2026-05-06 16:19 | 49.64164 | 7.44780 | 36797 ft | 433 kts | 134° |
| 2026-05-06 16:20 | 49.60215 | 7.51839 | 36790 ft | 434 kts | 134° |
| 2026-05-06 16:20 | 49.56287 | 7.58842 | 36819 ft | 434 kts | 134° |
| 2026-05-06 16:21 | 49.52316 | 7.65903 | 36783 ft | 435 kts | 134° |
| 2026-05-06 16:21 | 49.48361 | 7.72916 | 36784 ft | 436 kts | 134° |
| 2026-05-06 16:22 | 49.44369 | 7.79977 | 36797 ft | 437 kts | 134° |
| 2026-05-06 16:22 | 49.40393 | 7.86988 | 36800 ft | 438 kts | 134° |
| 2026-05-06 16:23 | 49.36373 | 7.94061 | 36807 ft | 439 kts | 134° |
| 2026-05-06 16:23 | 49.32344 | 8.01130 | 36808 ft | 440 kts | 134° |
| 2026-05-06 16:24 | 49.28335 | 8.08144 | 36797 ft | 439 kts | 135° |
| 2026-05-06 16:24 | 49.24302 | 8.15182 | 36799 ft | 439 kts | 135° |
| 2026-05-06 16:25 | 49.20261 | 8.22214 | 36806 ft | 439 kts | 135° |
| 2026-05-06 16:25 | 49.16217 | 8.29233 | 36812 ft | 439 kts | 135° |
| 2026-05-06 16:26 | 49.12200 | 8.36187 | 36811 ft | 439 kts | 135° |
| 2026-05-06 16:26 | 49.08150 | 8.43180 | 36811 ft | 439 kts | 135° |
| 2026-05-06 16:27 | 49.04124 | 8.50116 | 36817 ft | 439 kts | 135° |
| 2026-05-06 16:27 | 49.00047 | 8.57072 | 36815 ft | 438 kts | 138° |
| 2026-05-06 16:28 | 48.95298 | 8.62730 | 36824 ft | 431 kts | 150° |
| 2026-05-06 16:28 | 48.90353 | 8.67813 | 36815 ft | 432 kts | 149° |
| 2026-05-06 16:29 | 48.85406 | 8.73010 | 36821 ft | 431 kts | 149° |
| 2026-05-06 16:29 | 48.80460 | 8.78198 | 36687 ft | 428 kts | 149° |
| 2026-05-06 16:30 | 48.76439 | 8.82399 | 36769 ft | 421 kts | 149° |
| 2026-05-06 16:30 | 48.70798 | 8.88258 | 36822 ft | 420 kts | 149° |
| 2026-05-06 16:31 | 48.65982 | 8.93243 | 36825 ft | 422 kts | 149° |
| 2026-05-06 16:31 | 48.61108 | 8.98278 | 36832 ft | 423 kts | 149° |
| 2026-05-06 16:32 | 48.56267 | 9.03269 | 36827 ft | 423 kts | 149° |
| 2026-05-06 16:32 | 48.51384 | 9.08291 | 36835 ft | 425 kts | 149° |
| 2026-05-06 16:33 | 48.46482 | 9.13321 | 36821 ft | 426 kts | 149° |
| 2026-05-06 16:34 | 48.39160 | 9.20813 | 36838 ft | 424 kts | 150° |
| 2026-05-06 16:34 | 48.34275 | 9.25796 | 36853 ft | 424 kts | 150° |
| 2026-05-06 16:35 | 48.29374 | 9.30783 | 36827 ft | 424 kts | 150° |
| 2026-05-06 16:35 | 48.24483 | 9.35749 | 36843 ft | 423 kts | 149° |
| 2026-05-06 16:36 | 48.19634 | 9.40662 | 36839 ft | 422 kts | 150° |
| 2026-05-06 16:36 | 48.14761 | 9.45587 | 36831 ft | 421 kts | 150° |
| 2026-05-06 16:37 | 48.09902 | 9.50485 | 36840 ft | 420 kts | 150° |
| 2026-05-06 16:37 | 48.05071 | 9.55344 | 36845 ft | 420 kts | 150° |
| 2026-05-06 16:38 | 48.00218 | 9.60213 | 36828 ft | 419 kts | 150° |
| 2026-05-06 16:38 | 47.95366 | 9.65072 | 36844 ft | 419 kts | 150° |
| 2026-05-06 16:39 | 47.90536 | 9.69896 | 36838 ft | 420 kts | 150° |
| 2026-05-06 16:39 | 47.85672 | 9.74743 | 36852 ft | 420 kts | 150° |
| 2026-05-06 16:40 | 47.80831 | 9.79557 | 36854 ft | 421 kts | 150° |
| 2026-05-06 16:40 | 47.75962 | 9.84387 | 36861 ft | 421 kts | 150° |
| 2026-05-06 16:41 | 47.71068 | 9.89232 | 36866 ft | 422 kts | 150° |
| 2026-05-06 16:41 | 47.66158 | 9.94080 | 36864 ft | 423 kts | 150° |
| 2026-05-06 16:42 | 47.61266 | 9.98900 | 36868 ft | 424 kts | 150° |
| 2026-05-06 16:42 | 47.56346 | 10.03737 | 36870 ft | 425 kts | 150° |
| 2026-05-06 16:43 | 47.51410 | 10.08579 | 36867 ft | 425 kts | 151° |
| 2026-05-06 16:43 | 47.46453 | 10.13430 | 36888 ft | 427 kts | 150° |
| 2026-05-06 16:44 | 47.41492 | 10.18272 | 36882 ft | 432 kts | 150° |
| 2026-05-06 16:44 | 47.36471 | 10.23163 | 36879 ft | 431 kts | 151° |
| 2026-05-06 16:45 | 47.31465 | 10.28032 | 36870 ft | 430 kts | 151° |
| 2026-05-06 16:45 | 47.26480 | 10.32864 | 36856 ft | 427 kts | 151° |
| 2026-05-06 16:46 | 47.21539 | 10.37645 | 36835 ft | 423 kts | 151° |
| 2026-05-06 16:46 | 47.16675 | 10.42342 | 36857 ft | 420 kts | 151° |
| 2026-05-06 16:47 | 47.11785 | 10.47051 | 36830 ft | 420 kts | 151° |
| 2026-05-06 16:47 | 47.06850 | 10.51758 | 36849 ft | 426 kts | 154° |
| 2026-05-06 16:48 | 47.01398 | 10.54998 | 36867 ft | 421 kts | 167° |
| 2026-05-06 16:48 | 46.95791 | 10.57419 | 36642 ft | 422 kts | 167° |
| 2026-05-06 16:48 | 46.93004 | 10.58651 | 36364 ft | 414 kts | 167° |
| 2026-05-06 16:49 | 46.90277 | 10.59878 | 36089 ft | 406 kts | 167° |
| 2026-05-06 16:49 | 46.87607 | 10.61085 | 35829 ft | 400 kts | 167° |
| 2026-05-06 16:49 | 46.84951 | 10.62283 | 35578 ft | 397 kts | 167° |
| 2026-05-06 16:49 | 46.82317 | 10.63465 | 35319 ft | 394 kts | 167° |
| 2026-05-06 16:50 | 46.79706 | 10.64634 | 35060 ft | 392 kts | 167° |
| 2026-05-06 16:50 | 46.77089 | 10.65803 | 34828 ft | 395 kts | 167° |
| 2026-05-06 16:50 | 46.74452 | 10.66980 | 34593 ft | 397 kts | 167° |
| 2026-05-06 16:50 | 46.72702 | 10.67759 | 34428 ft | 394 kts | 168° |
| 2026-05-06 16:51 | 46.69224 | 10.69055 | 34116 ft | 389 kts | 171° |
| 2026-05-06 16:51 | 46.66594 | 10.69910 | 33878 ft | 386 kts | 172° |
| 2026-05-06 16:51 | 46.63978 | 10.70735 | 33585 ft | 382 kts | 172° |
| 2026-05-06 16:51 | 46.61394 | 10.71551 | 33337 ft | 379 kts | 172° |
| 2026-05-06 16:52 | 46.58830 | 10.72369 | 33030 ft | 375 kts | 172° |
| 2026-05-06 16:52 | 46.56294 | 10.73184 | 32756 ft | 369 kts | 172° |
| 2026-05-06 16:52 | 46.53810 | 10.73988 | 32446 ft | 364 kts | 172° |
| 2026-05-06 16:52 | 46.51353 | 10.74788 | 32099 ft | 360 kts | 171° |
| 2026-05-06 16:53 | 46.48921 | 10.75580 | 31743 ft | 357 kts | 171° |
| 2026-05-06 16:53 | 46.44106 | 10.77148 | 31173 ft | 355 kts | 176° |
| 2026-05-06 16:53 | 46.41710 | 10.77925 | 30828 ft | 353 kts | 176° |
| 2026-05-06 16:54 | 46.39324 | 10.78701 | 30474 ft | 346 kts | 176° |
| 2026-05-06 16:54 | 46.36997 | 10.79457 | 30159 ft | 342 kts | 176° |
| 2026-05-06 16:54 | 46.34684 | 10.80205 | 29807 ft | 339 kts | 176° |
| 2026-05-06 16:54 | 46.32391 | 10.80947 | 29447 ft | 336 kts | 176° |
| 2026-05-06 16:55 | 46.30154 | 10.81672 | 29086 ft | 331 kts | 176° |
| 2026-05-06 16:55 | 46.27922 | 10.82394 | 28771 ft | 325 kts | 176° |
| 2026-05-06 16:55 | 46.25716 | 10.83106 | 28427 ft | 321 kts | 176° |
| 2026-05-06 16:55 | 46.23542 | 10.83807 | 28054 ft | 317 kts | 176° |
| 2026-05-06 16:56 | 46.21398 | 10.84499 | 27780 ft | 313 kts | 176° |
| 2026-05-06 16:56 | 46.19316 | 10.85170 | 27546 ft | 308 kts | 176° |
| 2026-05-06 16:56 | 46.17233 | 10.85839 | 27238 ft | 305 kts | 176° |
| 2026-05-06 16:56 | 46.15155 | 10.86504 | 26902 ft | 305 kts | 176° |
| 2026-05-06 16:57 | 46.13079 | 10.87165 | 26553 ft | 304 kts | 176° |
| 2026-05-06 16:57 | 46.11000 | 10.87828 | 26240 ft | 309 kts | 176° |
| 2026-05-06 16:57 | 46.08852 | 10.88507 | 25919 ft | 320 kts | 176° |
| 2026-05-06 16:57 | 46.06687 | 10.89194 | 25548 ft | 322 kts | 175° |
| 2026-05-06 16:58 | 46.04511 | 10.89894 | 25211 ft | 319 kts | 175° |
| 2026-05-06 16:58 | 46.02349 | 10.90591 | 24864 ft | 317 kts | 175° |
| 2026-05-06 16:58 | 46.00201 | 10.91281 | 24505 ft | 315 kts | 175° |
| 2026-05-06 16:58 | 45.98066 | 10.91964 | 24171 ft | 312 kts | 175° |
| 2026-05-06 16:59 | 45.95953 | 10.92638 | 23839 ft | 310 kts | 175° |
| 2026-05-06 16:59 | 45.93848 | 10.93307 | 23509 ft | 308 kts | 175° |
| 2026-05-06 16:59 | 45.91779 | 10.93964 | 23140 ft | 307 kts | 175° |
| 2026-05-06 16:59 | 45.89689 | 10.94628 | 22763 ft | 306 kts | 175° |
| 2026-05-06 17:00 | 45.87615 | 10.95288 | 22422 ft | 304 kts | 175° |
| 2026-05-06 17:00 | 45.85548 | 10.95944 | 22096 ft | 303 kts | 175° |
| 2026-05-06 17:00 | 45.83505 | 10.96594 | 21742 ft | 299 kts | 175° |
| 2026-05-06 17:00 | 45.81483 | 10.97236 | 21458 ft | 295 kts | 175° |
| 2026-05-06 17:01 | 45.79488 | 10.97864 | 21122 ft | 293 kts | 174° |
| 2026-05-06 17:01 | 45.77530 | 10.98481 | 20808 ft | 290 kts | 174° |
| 2026-05-06 17:01 | 45.75570 | 10.99097 | 20518 ft | 288 kts | 175° |
| 2026-05-06 17:01 | 45.73607 | 10.99711 | 20210 ft | 289 kts | 174° |
| 2026-05-06 17:02 | 45.71631 | 11.00329 | 19904 ft | 293 kts | 174° |
| 2026-05-06 17:02 | 45.69607 | 11.00961 | 19587 ft | 301 kts | 174° |
| 2026-05-06 17:02 | 45.67544 | 11.01607 | 19223 ft | 303 kts | 174° |
| 2026-05-06 17:02 | 45.65528 | 11.02511 | 18879 ft | 310 kts | 159° |
| 2026-05-06 17:03 | 45.63777 | 11.04313 | 18571 ft | 319 kts | 142° |
| 2026-05-06 17:03 | 45.62412 | 11.06870 | 18232 ft | 328 kts | 128° |
| 2026-05-06 17:03 | 45.61236 | 11.09655 | 17876 ft | 327 kts | 128° |
| 2026-05-06 17:03 | 45.60047 | 11.12428 | 17511 ft | 326 kts | 128° |
| 2026-05-06 17:04 | 45.58854 | 11.15165 | 17161 ft | 321 kts | 129° |
| 2026-05-06 17:04 | 45.58069 | 11.16932 | 17005 ft | 318 kts | 129° |
| 2026-05-06 17:04 | 45.56873 | 11.19595 | 16656 ft | 316 kts | 129° |
| 2026-05-06 17:04 | 45.55304 | 11.23071 | 16254 ft | 312 kts | 129° |
| 2026-05-06 17:05 | 45.54127 | 11.25676 | 15939 ft | 311 kts | 129° |
| 2026-05-06 17:05 | 45.53353 | 11.27390 | 15728 ft | 310 kts | 129° |
| 2026-05-06 17:05 | 45.52186 | 11.29971 | 15423 ft | 308 kts | 129° |
| 2026-05-06 17:05 | 45.51029 | 11.32528 | 15122 ft | 306 kts | 128° |
| 2026-05-06 17:06 | 45.49873 | 11.35085 | 14804 ft | 304 kts | 128° |
| 2026-05-06 17:06 | 45.48728 | 11.37614 | 14507 ft | 302 kts | 128° |
| 2026-05-06 17:06 | 45.47599 | 11.40105 | 14208 ft | 300 kts | 128° |
| 2026-05-06 17:06 | 45.46467 | 11.42605 | 13898 ft | 299 kts | 128° |
| 2026-05-06 17:07 | 45.45340 | 11.45089 | 13596 ft | 297 kts | 128° |
| 2026-05-06 17:07 | 45.44218 | 11.47558 | 13253 ft | 296 kts | 128° |
| 2026-05-06 17:07 | 45.43100 | 11.50014 | 12925 ft | 294 kts | 128° |
| 2026-05-06 17:07 | 45.41926 | 11.52330 | 12668 ft | 289 kts | 135° |
| 2026-05-06 17:08 | 45.40572 | 11.54431 | 12431 ft | 287 kts | 138° |
| 2026-05-06 17:08 | 45.39204 | 11.56501 | 12203 ft | 288 kts | 137° |
| 2026-05-06 17:08 | 45.37834 | 11.58612 | 11965 ft | 290 kts | 137° |
| 2026-05-06 17:08 | 45.36474 | 11.60737 | 11729 ft | 290 kts | 136° |
| 2026-05-06 17:09 | 45.35143 | 11.62906 | 11480 ft | 293 kts | 129° |
| 2026-05-06 17:09 | 45.34380 | 11.65621 | 11242 ft | 303 kts | 102° |
| 2026-05-06 17:09 | 45.34022 | 11.68513 | 10955 ft | 297 kts | 116° |
| 2026-05-06 17:09 | 45.32817 | 11.70741 | 10754 ft | 278 kts | 150° |
| 2026-05-06 17:10 | 45.31073 | 11.71584 | 10552 ft | 261 kts | 184° |
| 2026-05-06 17:10 | 45.29249 | 11.71374 | 10335 ft | 267 kts | 180° |
| 2026-05-06 17:10 | 45.27384 | 11.71789 | 10147 ft | 274 kts | 172° |
| 2026-05-06 17:10 | 45.25509 | 11.72321 | 9868 ft | 274 kts | 172° |
| 2026-05-06 17:11 | 45.23649 | 11.72844 | 9625 ft | 270 kts | 172° |
| 2026-05-06 17:11 | 45.21821 | 11.73360 | 9370 ft | 266 kts | 172° |
| 2026-05-06 17:11 | 45.20041 | 11.73862 | 9140 ft | 262 kts | 172° |
| 2026-05-06 17:11 | 45.18255 | 11.74367 | 8919 ft | 261 kts | 172° |
| 2026-05-06 17:12 | 45.16471 | 11.74870 | 8700 ft | 260 kts | 172° |
| 2026-05-06 17:12 | 45.14709 | 11.75368 | 8520 ft | 254 kts | 172° |
| 2026-05-06 17:12 | 45.12958 | 11.75632 | 8173 ft | 256 kts | 187° |
| 2026-05-06 17:12 | 45.11286 | 11.74889 | 7812 ft | 260 kts | 210° |
| 2026-05-06 17:13 | 45.09721 | 11.73569 | 7584 ft | 261 kts | 213° |
| 2026-05-06 17:13 | 45.08180 | 11.72192 | 7321 ft | 257 kts | 214° |
| 2026-05-06 17:13 | 45.06770 | 11.70735 | 7058 ft | 253 kts | 226° |
| 2026-05-06 17:13 | 45.05582 | 11.68933 | 6820 ft | 249 kts | 221° |
| 2026-05-06 17:14 | 45.04036 | 11.67857 | 6555 ft | 252 kts | 193° |
| 2026-05-06 17:14 | 45.02282 | 11.67948 | 6314 ft | 257 kts | 168° |
| 2026-05-06 17:14 | 45.00663 | 11.69068 | 6065 ft | 264 kts | 144° |
| 2026-05-06 17:14 | 44.99483 | 11.71061 | 5808 ft | 268 kts | 119° |
| 2026-05-06 17:15 | 44.99034 | 11.73612 | 5551 ft | 271 kts | 91° |
| 2026-05-06 17:15 | 44.99451 | 11.76177 | 5294 ft | 269 kts | 63° |
| 2026-05-06 17:15 | 45.00613 | 11.78193 | 5040 ft | 262 kts | 38° |
| 2026-05-06 17:15 | 45.02209 | 11.79287 | 4766 ft | 254 kts | 6° |
| 2026-05-06 17:16 | 45.03943 | 11.79343 | 4550 ft | 246 kts | 0° |
| 2026-05-06 17:16 | 45.05613 | 11.79770 | 4275 ft | 245 kts | 19° |
| 2026-05-06 17:16 | 45.07078 | 11.80942 | 4081 ft | 241 kts | 40° |
| 2026-05-06 17:16 | 45.08332 | 11.82474 | 3995 ft | 236 kts | 41° |
| 2026-05-06 17:17 | 45.09548 | 11.83977 | 3992 ft | 225 kts | 41° |
| 2026-05-06 17:17 | 45.10692 | 11.85383 | 3975 ft | 212 kts | 41° |
| 2026-05-06 17:17 | 45.11799 | 11.86738 | 3961 ft | 209 kts | 41° |
| 2026-05-06 17:17 | 45.12896 | 11.88076 | 3969 ft | 208 kts | 41° |
| 2026-05-06 17:18 | 45.13993 | 11.89411 | 3970 ft | 208 kts | 41° |
| 2026-05-06 17:18 | 45.15094 | 11.90748 | 3978 ft | 209 kts | 41° |
| 2026-05-06 17:18 | 45.16198 | 11.92087 | 3981 ft | 209 kts | 41° |
| 2026-05-06 17:18 | 45.17307 | 11.93432 | 3985 ft | 210 kts | 41° |
| 2026-05-06 17:19 | 45.18416 | 11.94776 | 3986 ft | 210 kts | 41° |
| 2026-05-06 17:19 | 45.19514 | 11.96106 | 3976 ft | 211 kts | 41° |
| 2026-05-06 17:19 | 45.20628 | 11.97456 | 3972 ft | 211 kts | 41° |
| 2026-05-06 17:19 | 45.21782 | 11.98856 | 3976 ft | 228 kts | 41° |
| 2026-05-06 17:20 | 45.23023 | 12.00359 | 3983 ft | 233 kts | 41° |
| 2026-05-06 17:20 | 45.24242 | 12.01835 | 3985 ft | 234 kts | 40° |
| 2026-05-06 17:20 | 45.25541 | 12.03231 | 3976 ft | 234 kts | 37° |
| 2026-05-06 17:20 | 45.26839 | 12.04685 | 3969 ft | 235 kts | 40° |
| 2026-05-06 17:21 | 45.28068 | 12.06188 | 3983 ft | 237 kts | 42° |
| 2026-05-06 17:21 | 45.29294 | 12.07751 | 3981 ft | 237 kts | 43° |
| 2026-05-06 17:21 | 45.30513 | 12.09326 | 3985 ft | 237 kts | 43° |
| 2026-05-06 17:21 | 45.31734 | 12.10909 | 3825 ft | 237 kts | 43° |
| 2026-05-06 17:22 | 45.32945 | 12.12478 | 3656 ft | 233 kts | 43° |
| 2026-05-06 17:22 | 45.34135 | 12.14018 | 3484 ft | 229 kts | 43° |
| 2026-05-06 17:22 | 45.35307 | 12.15534 | 3337 ft | 228 kts | 43° |
| 2026-05-06 17:22 | 45.36484 | 12.17056 | 3185 ft | 229 kts | 43° |
| 2026-05-06 17:23 | 45.37665 | 12.18584 | 3058 ft | 229 kts | 43° |
| 2026-05-06 17:23 | 45.38835 | 12.20097 | 2811 ft | 226 kts | 43° |
| 2026-05-06 17:23 | 45.39979 | 12.21575 | 2521 ft | 217 kts | 43° |
| 2026-05-06 17:23 | 45.41075 | 12.22991 | 2235 ft | 208 kts | 43° |
| 2026-05-06 17:24 | 45.42106 | 12.24323 | 1976 ft | 191 kts | 44° |
| 2026-05-06 17:24 | 45.43031 | 12.25516 | 1733 ft | 170 kts | 45° |
| 2026-05-06 17:24 | 45.43855 | 12.26582 | 1533 ft | 152 kts | 44° |
| 2026-05-06 17:24 | 45.44629 | 12.27582 | 1309 ft | 148 kts | 44° |
| 2026-05-06 17:25 | 45.45372 | 12.28542 | 1124 ft | 143 kts | 45° |
| 2026-05-06 17:25 | 45.46113 | 12.29495 | 928 ft | 144 kts | 45° |
| 2026-05-06 17:25 | 45.46843 | 12.30442 | 731 ft | 138 kts | 43° |
| 2026-05-06 17:25 | 45.47534 | 12.31351 | 528 ft | 132 kts | 44° |
| 2026-05-06 17:26 | 45.48202 | 12.32211 | 351 ft | 131 kts | 44° |
| 2026-05-06 17:26 | 45.48881 | 12.33087 | 205 ft | 134 kts | 45° |
| 2026-05-06 17:26 | 45.49562 | 12.33968 | 39 ft | 129 kts | 43° |
| 2026-05-06 17:26 | 45.50160 | 12.34738 | 15 ft | 95 kts | 41° |
| 2026-05-06 17:27 | 45.50424 | 12.35036 | 14 ft | 32 kts | 20° |
| 2026-05-06 17:27 | 45.50533 | 12.35072 | 14 ft | 15 kts | 7° |
| 2026-05-06 17:27 | 45.50603 | 12.35047 | 14 ft | 1 kts | 306° |
| 2026-05-06 17:27 | 45.50610 | 12.35026 | 14 ft | 5 kts | 290° |
| 2026-05-06 17:28 | 45.50614 | 12.34941 | 14 ft | 12 kts | 269° |
| 2026-05-06 17:28 | 45.50609 | 12.34802 | 15 ft | 15 kts | 266° |
| 2026-05-06 17:28 | 45.50603 | 12.34660 | 15 ft | 14 kts | 266° |
| 2026-05-06 17:28 | 45.50597 | 12.34525 | 15 ft | 13 kts | 266° |
| 2026-05-06 17:29 | 45.50571 | 12.34403 | 15 ft | 13 kts | 238° |
| 2026-05-06 17:29 | 45.50552 | 12.34292 | 15 ft | 9 kts | 267° |
| 2026-05-06 17:29 | 45.50549 | 12.34227 | 15 ft | 4 kts | 266° |
| 2026-05-06 17:29 | 45.50548 | 12.34213 | 15 ft | 1 kts | 265° |
| 2026-05-06 17:30 | 45.50548 | 12.34204 | 15 ft | 0 kts | 265° |
| 2026-05-06 17:30 | 45.50548 | 12.34203 | 15 ft | 0 kts | 265° |